HEBA/HBE METAR and TAF weather

Enter ICAO airport designator
Station Type Date Time Source
HEBA METAR 2019/10/21 04:00 UTC NOAA

HEBA 210400Z 06008KT 6000 FEW020 20/19 Q1014 NOSIG


Station Type Date Time Source
HEBA Decoded METAR 2019/10/21 04:00 UTC NOAA

Alexandria Borg El Arab, Egypt (HEBA) 31-31N 030-10E
Oct 21, 2019 - 12:00 AM EDT / 2019.10.21 0400 UTC
Wind: from the ENE (060 degrees) at 9 MPH (8 KT):0
Visibility: 3 mile(s):0
Sky conditions: mostly clear
Temperature: 68 F (20 C)
Dew Point: 66 F (19 C)
Relative Humidity: 93%
Pressure (altimeter): 29.94 in. Hg (1014 hPa)
ob: HEBA 210400Z 06008KT 6000 FEW020 20/19 Q1014 NOSIG
cycle: 4

Station Type Date Time Source
HEBA TAF 2019/10/21 06:12 UTC NOAA

TAF HEBA 210500Z 2106/2212 02010KT 9999 SCT020

Example: see airport list